Terminal Aerodrome Forecast
Issued by NWS

Home | Current Version | Previous Version | Text Only | Print | Product List | Glossary On
Versions: 1 2 3 4 5 6 7 8 9 10 11 12 13
013
FTUS42 KTBW 040530
TAFPGD
TAF
KPGD 040530Z 0406/0506 09007KT P6SM SKC
     FM041500 10012KT P6SM SCT030 SCT250
     FM042000 14009KT P6SM BKN040=

USA.gov is the U.S. government's official web portal to all federal, state and local government web resources and services.